createdAt,value
2018-06-02T00:00:44.602Z,83.77
2018-06-02T00:01:54.782Z,83.96
2018-06-02T00:03:04.951Z,83.96
2018-06-02T00:04:15.540Z,83.96
2018-06-02T00:05:25.379Z,84.25
2018-06-02T00:06:35.513Z,84.25
2018-06-02T00:07:45.393Z,84.01
2018-06-02T00:08:55.594Z,83.96
2018-06-02T00:10:05.764Z,84.11
2018-06-02T00:11:15.948Z,84.01
2018-06-02T00:12:26.423Z,84.31
2018-06-02T00:13:36.672Z,84.01
2018-06-02T00:14:46.903Z,84.89
2018-06-02T00:15:57.054Z,84.59
2018-06-02T00:17:06.994Z,84.5
2018-06-02T00:18:16.912Z,84.79
2018-06-02T00:19:27.080Z,84.69
2018-06-02T00:20:37.284Z,84.79
2018-06-02T00:21:47.060Z,84.79
2018-06-02T00:22:57.197Z,85.27
2018-06-02T00:24:07.341Z,85.08
2018-06-02T00:25:17.579Z,85.17
2018-06-02T00:26:27.798Z,85.27
2018-06-02T00:27:37.792Z,85.17
2018-06-02T00:28:47.975Z,85.08
2018-06-02T00:29:58.155Z,84.98
2018-06-02T00:31:08.286Z,84.69
2018-06-02T00:32:18.480Z,85.27
2018-06-02T00:33:28.722Z,85.37
2018-06-02T00:34:38.847Z,84.89
2018-06-02T00:35:48.999Z,84.79
2018-06-02T00:36:59.377Z,84.5
2018-06-02T00:38:09.950Z,84.79
2018-06-02T00:39:19.811Z,84.89
2018-06-02T00:40:29.964Z,84.98
2018-06-02T00:41:40.163Z,84.31
2018-06-02T00:42:50.389Z,84.59
2018-06-02T00:44:00.574Z,84.69
2018-06-02T00:45:10.847Z,84.79
2018-06-02T00:46:21.030Z,85.08
2018-06-02T00:47:31.202Z,85.37
2018-06-02T00:48:41.348Z,84.79
2018-06-02T00:49:51.531Z,84.69
2018-06-02T00:51:01.064Z,84.65
2018-06-02T00:52:10.624Z,84.84
2018-06-02T00:53:20.885Z,84.65
2018-06-02T00:54:31.025Z,85.13
2018-06-02T00:55:41.207Z,85.42
2018-06-02T00:56:51.409Z,85.71
2018-06-02T00:58:01.562Z,85.42
2018-06-02T00:59:11.735Z,85.13
2018-06-02T01:00:21.881Z,85.42
2018-06-02T01:01:32.237Z,85.52
2018-06-02T01:02:42.395Z,85.13
2018-06-02T01:03:52.542Z,85.33
2018-06-02T01:05:02.924Z,86.19
2018-06-02T01:06:14.285Z,85.71
2018-06-02T01:07:25.119Z,85.81
2018-06-02T01:08:35.272Z,85.42
2018-06-02T01:09:45.436Z,85.52
2018-06-02T01:10:55.608Z,85.52
2018-06-02T01:12:05.783Z,85.42
2018-06-02T01:13:16.652Z,85.42
2018-06-02T01:14:26.866Z,85.42
2018-06-02T01:15:36.832Z,85.33
2018-06-02T01:16:46.977Z,85.42
2018-06-02T01:17:57.380Z,85.23
2018-06-02T01:19:08.000Z,85.33
2018-06-02T01:20:18.128Z,85.13
2018-06-02T01:21:28.270Z,85.33
2018-06-02T01:22:38.716Z,85.42
2018-06-02T01:23:50.118Z,85.42
2018-06-02T01:25:00.304Z,85.42
2018-06-02T01:26:10.555Z,85.42
2018-06-02T01:27:20.916Z,85.42
2018-06-02T01:28:31.684Z,85.42
2018-06-02T01:29:41.697Z,85.52
2018-06-02T01:30:52.637Z,85.42
2018-06-02T01:32:02.776Z,85.52
2018-06-02T01:33:12.683Z,85.23
2018-06-02T01:34:22.792Z,85.42
2018-06-02T01:35:33.386Z,85.42
2018-06-02T01:36:43.532Z,85.23
2018-06-02T01:37:54.564Z,85.03
2018-06-02T01:39:05.985Z,85.03
2018-06-02T01:40:16.418Z,85.03
2018-06-02T01:41:26.779Z,84.84
2018-06-02T01:42:37.182Z,85.33
2018-06-02T01:43:47.973Z,85.13
2018-06-02T01:44:59.115Z,84.94
2018-06-02T01:46:09.274Z,85.42
2018-06-02T01:47:19.629Z,85.42
2018-06-02T01:48:29.779Z,85.03
2018-06-02T01:49:40.564Z,85.03
2018-06-02T01:50:50.745Z,85.23
2018-06-02T01:52:00.511Z,85.03
2018-06-02T01:53:10.915Z,85.23
2018-06-02T01:54:21.355Z,85.03
2018-06-02T01:55:31.449Z,85.42
2018-06-02T01:56:41.615Z,84.55
2018-06-02T01:57:52.125Z,85.42
2018-06-02T01:59:02.562Z,84.65
2018-06-02T02:00:13.724Z,84.94
2018-06-02T02:01:24.859Z,84.75
2018-06-02T02:02:35.404Z,84.46
2018-06-02T02:03:45.611Z,84.65
2018-06-02T02:04:56.788Z,84.36
2018-06-02T02:06:07.129Z,84.46
2018-06-02T02:07:18.705Z,83.98
2018-06-02T02:08:29.224Z,84.03
2018-06-02T02:09:39.490Z,84.22
2018-06-02T02:10:49.108Z,84.32
2018-06-02T02:11:59.358Z,84.03
2018-06-02T02:13:09.626Z,84.42
2018-06-02T02:14:20.971Z,84.42
2018-06-02T02:15:32.081Z,84.52
2018-06-02T02:16:43.909Z,84.32
2018-06-02T02:17:54.307Z,84.22
2018-06-02T02:19:05.235Z,83.99
2018-06-02T02:20:15.322Z,84.47
2018-06-02T02:21:25.701Z,84.76
2018-06-02T02:22:36.269Z,84.56
2018-06-02T02:23:46.777Z,84.56
2018-06-02T02:24:57.457Z,84.28
2018-06-02T02:26:08.087Z,84.47
2018-06-02T02:27:18.831Z,84.47
2018-06-02T02:28:29.047Z,84.47
2018-06-02T02:29:39.221Z,84.28
2018-06-02T02:30:49.358Z,84.38
2018-06-02T02:31:59.168Z,83.99
2018-06-02T02:33:08.845Z,83.99
2018-06-02T02:34:20.509Z,84.47
2018-06-02T02:35:30.381Z,83.99
2018-06-02T02:36:47.224Z,84.03
2018-06-02T02:37:57.487Z,83.94
2018-06-02T02:39:07.725Z,83.84
2018-06-02T02:40:17.910Z,83.74
2018-06-02T02:41:28.060Z,83.64
2018-06-02T02:42:38.250Z,83.36
2018-06-02T02:43:48.508Z,83.64
2018-06-02T02:44:58.815Z,82.87
2018-06-02T02:46:09.041Z,83.16
2018-06-02T02:47:20.217Z,82.97
2018-06-02T02:48:30.387Z,83.16
2018-06-02T02:49:40.527Z,82.97
2018-06-02T02:50:50.463Z,83.26
2018-06-02T02:52:00.714Z,82.68
2018-06-02T02:53:10.853Z,82.78
2018-06-02T02:54:21.044Z,82.97
2018-06-02T02:55:31.183Z,82.87
2018-06-02T02:56:41.343Z,82.39
2018-06-02T02:57:51.499Z,82.29
2018-06-02T02:59:01.696Z,82.39
2018-06-02T03:00:11.833Z,82.39
2018-06-02T03:01:21.984Z,82.1
2018-06-02T03:02:32.114Z,82.2
2018-06-02T03:03:42.263Z,82.39
2018-06-02T03:04:52.236Z,81.81
2018-06-02T03:06:02.404Z,82.29
2018-06-02T03:07:12.593Z,82.2
2018-06-02T03:08:22.771Z,82.2
2018-06-02T03:09:32.944Z,82.29
2018-06-02T03:10:43.320Z,82.29
2018-06-02T03:11:53.464Z,82.1
2018-06-02T03:13:03.102Z,82.1
2018-06-02T03:14:13.483Z,82.2
2018-06-02T03:15:23.654Z,82.29
2018-06-02T03:16:33.877Z,82.2
2018-06-02T03:17:44.024Z,82.2
2018-06-02T03:18:54.154Z,82.1
2018-06-02T03:20:04.444Z,82.01
2018-06-02T03:21:14.690Z,82.1
2018-06-02T03:22:24.854Z,82.1
2018-06-02T03:23:35.050Z,82.1
2018-06-02T03:24:44.843Z,82.29
2018-06-02T03:25:55.059Z,82.29
2018-06-02T03:27:05.291Z,82.29
2018-06-02T03:28:15.443Z,82.68
2018-06-02T03:29:25.617Z,82.59
2018-06-02T03:30:36.070Z,82.68
2018-06-02T03:31:46.271Z,82.29
2018-06-02T03:32:56.481Z,82.78
2018-06-02T03:34:06.679Z,82.68
2018-06-02T03:35:16.935Z,82.68
2018-06-02T03:36:27.086Z,82.49
2018-06-02T03:37:37.260Z,82.87
2018-06-02T03:38:47.528Z,82.68
2018-06-02T03:39:57.762Z,82.59
2018-06-02T03:41:08.069Z,82.59
2018-06-02T03:42:18.243Z,82.29
2018-06-02T03:43:28.535Z,82.29
2018-06-02T03:44:38.757Z,82.39
2018-06-02T03:45:48.545Z,82.29
2018-06-02T03:46:58.701Z,82.49
2018-06-02T03:48:08.854Z,82.1
2018-06-02T03:49:19.107Z,82.2
2018-06-02T03:50:29.339Z,81.72
2018-06-02T03:51:38.886Z,81.72
2018-06-02T03:52:49.053Z,82.01
2018-06-02T03:53:59.175Z,81.95
2018-06-02T03:55:09.356Z,81.95
2018-06-02T03:56:19.573Z,81.91
2018-06-02T03:57:29.723Z,82.01
2018-06-02T03:58:39.610Z,82.01
2018-06-02T03:59:49.736Z,81.91
2018-06-02T04:00:59.874Z,82.01
2018-06-02T04:02:10.102Z,82.2
2018-06-02T04:03:20.334Z,82.24
2018-06-02T04:04:30.206Z,82.1
2018-06-02T04:05:40.347Z,82.01
2018-06-02T04:06:50.521Z,82.01
2018-06-02T04:08:00.407Z,82.01
2018-06-02T04:09:10.554Z,82.14
2018-06-02T04:10:20.719Z,82.29
2018-06-02T04:11:30.961Z,82.49
2018-06-02T04:12:41.151Z,82.2
2018-06-02T04:13:51.311Z,82.2
2018-06-02T04:15:01.206Z,83.16
2018-06-02T04:16:11.375Z,83.07
2018-06-02T04:17:21.244Z,82.97
2018-06-02T04:18:31.419Z,82.78
2018-06-02T04:19:41.552Z,83.07
2018-06-02T04:20:51.743Z,82.97
2018-06-02T04:22:02.002Z,83.26
2018-06-02T04:23:12.221Z,82.97
2018-06-02T04:24:22.419Z,83.36
2018-06-02T04:25:32.664Z,83.16
2018-06-02T04:26:42.806Z,83.16
2018-06-02T04:27:53.100Z,82.87
2018-06-02T04:29:02.879Z,82.92
2018-06-02T04:30:13.112Z,83.3
2018-06-02T04:31:23.262Z,82.82
2018-06-02T04:32:33.510Z,82.92
2018-06-02T04:33:43.661Z,83.01
2018-06-02T04:34:53.860Z,83.01
2018-06-02T04:36:04.040Z,83.01
2018-06-02T04:37:14.260Z,83.01
2018-06-02T04:38:24.420Z,82.72
2018-06-02T04:39:34.574Z,83.01
2018-06-02T04:40:44.714Z,82.62
2018-06-02T04:41:54.852Z,83.4
2018-06-02T04:43:04.997Z,82.92
2018-06-02T04:44:15.138Z,83.2
2018-06-02T04:45:25.312Z,83.01
2018-06-02T04:46:35.258Z,83.4
2018-06-02T04:47:45.429Z,82.92
2018-06-02T04:48:55.578Z,83.3
2018-06-02T04:50:05.458Z,83.2
2018-06-02T04:51:15.151Z,83.69
2018-06-02T04:52:25.322Z,83.44
2018-06-02T04:53:35.497Z,83.59
2018-06-02T04:54:45.688Z,83.63
2018-06-02T04:55:55.566Z,84.11
2018-06-02T04:57:05.709Z,83.88
2018-06-02T04:58:15.858Z,83.59
2018-06-02T04:59:25.820Z,83.88
2018-06-02T05:00:35.958Z,84.07
2018-06-02T05:01:46.102Z,84.31
2018-06-02T05:02:56.245Z,84.07
2018-06-02T05:04:06.156Z,84.41
2018-06-02T05:05:16.297Z,84.36
2018-06-02T05:06:26.186Z,84.55
2018-06-02T05:07:36.333Z,85.03
2018-06-02T05:08:46.509Z,85.23
2018-06-02T05:09:56.272Z,85.23
2018-06-02T05:11:06.416Z,85.23
2018-06-02T05:12:16.297Z,85.23
2018-06-02T05:13:26.434Z,85.23
2018-06-02T05:14:36.624Z,86
2018-06-02T05:15:46.752Z,86
2018-06-02T05:16:56.922Z,86
2018-06-02T05:18:07.203Z,85.81
2018-06-02T05:19:17.372Z,86.14
2018-06-02T05:20:27.617Z,86.24
2018-06-02T05:21:37.264Z,86.43
2018-06-02T05:22:47.174Z,86.77
2018-06-02T05:23:57.332Z,87.35
2018-06-02T05:25:07.508Z,86.87
2018-06-02T05:26:17.778Z,87.78
2018-06-02T05:27:27.940Z,87.74
2018-06-02T05:28:37.817Z,87.93
2018-06-02T05:29:47.988Z,87.64
2018-06-02T05:30:58.142Z,87.45
2018-06-02T05:32:08.365Z,87.16
2018-06-02T05:33:18.736Z,87.74
2018-06-02T05:34:28.921Z,87.64
2018-06-02T05:35:39.091Z,87.64
2018-06-02T05:36:49.276Z,87.68
2018-06-02T05:37:59.501Z,87.93
2018-06-02T05:39:09.668Z,87.35
2018-06-02T05:40:19.880Z,87.97
2018-06-02T05:41:30.175Z,87.68
2018-06-02T05:42:40.409Z,87.78
2018-06-02T05:43:50.593Z,87.68
2018-06-02T05:45:00.841Z,87.88
2018-06-02T05:46:12.084Z,87.59
2018-06-02T05:47:22.259Z,88.07
2018-06-02T05:48:32.668Z,87.78
2018-06-02T05:49:42.766Z,87.97
2018-06-02T05:50:53.003Z,87.88
2018-06-02T05:52:03.160Z,87.68
2018-06-02T05:53:13.352Z,87.97
2018-06-02T05:54:23.609Z,87.88
2018-06-02T05:55:33.784Z,87.68
2018-06-02T05:56:43.986Z,87.68
2018-06-02T05:57:54.235Z,87.01
2018-06-02T05:59:04.505Z,86.91
2018-06-02T06:00:14.824Z,87.01
2018-06-02T06:01:26.062Z,87.05
2018-06-02T06:02:36.229Z,87.2
2018-06-02T06:03:46.439Z,87.01
2018-06-02T06:04:56.655Z,87.1
2018-06-02T06:06:06.569Z,87.2
2018-06-02T06:07:16.705Z,87.01
2018-06-02T06:08:26.855Z,86.91
2018-06-02T06:09:37.029Z,86.86
2018-06-02T06:10:47.181Z,86.86
2018-06-02T06:11:57.475Z,86.86
2018-06-02T06:13:07.678Z,86.18
2018-06-02T06:14:17.957Z,86.57
2018-06-02T06:15:28.186Z,85.99
2018-06-02T06:16:38.383Z,86.08
2018-06-02T06:17:48.531Z,85.8
2018-06-02T06:18:58.687Z,85.74
2018-06-02T06:20:08.846Z,85.84
2018-06-02T06:21:19.015Z,85.41
2018-06-02T06:22:29.210Z,85.36
2018-06-02T06:23:39.350Z,85.64
2018-06-02T06:24:49.496Z,85.16
2018-06-02T06:25:59.703Z,85.26
2018-06-02T06:27:09.846Z,85.36
2018-06-02T06:28:20.036Z,84.83
2018-06-02T06:29:29.982Z,84.64
2018-06-02T06:30:40.162Z,84.83
2018-06-02T06:31:50.340Z,84.64
2018-06-02T06:33:00.089Z,85.06
2018-06-02T06:34:10.656Z,85.02
2018-06-02T06:35:20.846Z,84.97
2018-06-02T06:36:30.984Z,84.78
2018-06-02T06:37:41.213Z,85.26
2018-06-02T06:38:51.372Z,85.36
2018-06-02T06:40:01.542Z,85.26
2018-06-02T06:41:11.362Z,84.68
2018-06-02T06:42:21.534Z,84.88
2018-06-02T06:43:31.747Z,84.88
2018-06-02T06:44:42.037Z,84.54
2018-06-02T06:45:52.501Z,84.78
2018-06-02T06:47:02.661Z,84.44
2018-06-02T06:48:12.904Z,85.12
2018-06-02T06:49:23.178Z,84.97
2018-06-02T06:50:33.451Z,84.83
2018-06-02T06:51:43.729Z,84.35
2018-06-02T06:52:53.884Z,84.44
2018-06-02T06:54:04.030Z,84.16
2018-06-02T06:55:14.223Z,84.16
2018-06-02T06:56:24.406Z,84.06
2018-06-02T06:57:34.321Z,84.25
2018-06-02T06:58:44.661Z,84.25
2018-06-02T06:59:54.590Z,84.25
2018-06-02T07:01:04.796Z,84.64
2018-06-02T07:02:14.712Z,85.31
2018-06-02T07:03:24.643Z,85.22
2018-06-02T07:04:34.830Z,85.12
2018-06-02T07:05:44.985Z,84.93
2018-06-02T07:06:55.136Z,84.83
2018-06-02T07:08:05.316Z,84.64
2018-06-02T07:09:15.457Z,84.83
2018-06-02T07:10:25.638Z,85.22
2018-06-02T07:11:35.817Z,85.12
2018-06-02T07:12:46.085Z,84.93
2018-06-02T07:13:56.266Z,85.12
2018-06-02T07:15:06.426Z,84.97
2018-06-02T07:16:16.390Z,84.68
2018-06-02T07:17:26.532Z,84
2018-06-02T07:18:36.727Z,84.2
2018-06-02T07:19:46.973Z,83.62
2018-06-02T07:20:57.164Z,83.81
2018-06-02T07:22:07.420Z,83.62
2018-06-02T07:23:17.568Z,83.52
2018-06-02T07:24:27.863Z,83.91
2018-06-02T07:25:38.134Z,84.1
2018-06-02T07:26:48.293Z,83.52
2018-06-02T07:27:58.495Z,83.23
2018-06-02T07:29:08.697Z,83.33
2018-06-02T07:30:18.911Z,83.23
2018-06-02T07:31:29.184Z,83.23
2018-06-02T07:32:39.387Z,83.14
2018-06-02T07:33:49.594Z,83.23
2018-06-02T07:34:59.623Z,83.23
2018-06-02T07:36:09.868Z,83.91
2018-06-02T07:37:19.814Z,83.62
2018-06-02T07:38:29.963Z,83.72
2018-06-02T07:39:40.281Z,83.58
2018-06-02T07:40:50.474Z,83.77
2018-06-02T07:42:00.387Z,83.77
2018-06-02T07:43:10.554Z,83.58
2018-06-02T07:44:20.738Z,83.87
2018-06-02T07:45:31.134Z,83.58
2018-06-02T07:46:41.293Z,83.77
2018-06-02T07:47:51.460Z,84.06
2018-06-02T07:49:01.626Z,83.58
2018-06-02T07:50:11.861Z,83.48
2018-06-02T07:51:22.014Z,83.48
2018-06-02T07:52:32.168Z,83.67
2018-06-02T07:53:42.345Z,83.77
2018-06-02T07:54:52.538Z,84.06
2018-06-02T07:56:02.823Z,83.87
2018-06-02T07:57:12.741Z,83.77
2018-06-02T07:58:22.738Z,84.16
2018-06-02T07:59:32.898Z,84.16
2018-06-02T08:00:42.549Z,83.96
2018-06-02T08:01:52.782Z,84.06
2018-06-02T08:03:02.925Z,84.06
2018-06-02T08:04:13.098Z,84.06
2018-06-02T08:05:23.230Z,84.25
2018-06-02T08:06:33.405Z,83.58
2018-06-02T08:07:43.576Z,83.77
2018-06-02T08:08:53.803Z,83.91
2018-06-02T08:10:03.954Z,83.77
2018-06-02T08:11:14.244Z,83.14
2018-06-02T08:12:24.464Z,83.04
2018-06-02T08:13:34.254Z,83.33
2018-06-02T08:14:43.799Z,83.14
2018-06-02T08:15:53.986Z,83.33
2018-06-02T08:17:04.146Z,83.33
2018-06-02T08:18:14.301Z,83.42
2018-06-02T08:19:24.199Z,82.94
2018-06-02T08:20:34.301Z,82.51
2018-06-02T08:21:44.457Z,82.81
2018-06-02T08:22:54.517Z,83
2018-06-02T08:24:04.771Z,83.19
2018-06-02T08:25:14.944Z,83.39
2018-06-02T08:26:25.098Z,83.39
2018-06-02T08:27:35.357Z,83.39
2018-06-02T08:28:45.641Z,83.29
2018-06-02T08:29:55.842Z,83.48
2018-06-02T08:31:06.138Z,83.96
2018-06-02T08:32:16.307Z,84.06
2018-06-02T08:33:26.336Z,84.06
2018-06-02T08:34:37.040Z,83.58
2018-06-02T08:35:47.194Z,83.67
2018-06-02T08:36:57.357Z,83.87
2018-06-02T08:38:07.516Z,83.91
2018-06-02T08:39:17.684Z,83
2018-06-02T08:40:27.843Z,83.23
2018-06-02T08:41:37.371Z,83.42
2018-06-02T08:42:47.530Z,83.23
2018-06-02T08:43:57.421Z,82.94
2018-06-02T08:45:07.671Z,83.33
2018-06-02T08:46:17.978Z,82.94
2018-06-02T08:47:28.417Z,83.04
2018-06-02T08:48:38.573Z,83.04
2018-06-02T08:49:48.744Z,82.75
2018-06-02T08:50:58.897Z,82.56
2018-06-02T08:52:09.095Z,82.46
2018-06-02T08:53:19.249Z,82.4
2018-06-02T08:54:29.508Z,82.4
2018-06-02T08:55:39.818Z,82.4
2018-06-02T08:56:49.967Z,81.92
2018-06-02T08:58:00.199Z,82.02
2018-06-02T08:59:10.584Z,81.73
2018-06-02T09:00:20.579Z,81.73
2018-06-02T09:01:31.023Z,81.73
2018-06-02T09:02:41.204Z,81.44
2018-06-02T09:03:51.382Z,81.53
2018-06-02T09:05:01.547Z,81.44
2018-06-02T09:06:11.511Z,80.95
2018-06-02T09:07:21.657Z,81.44
2018-06-02T09:08:31.850Z,81.15
2018-06-02T09:09:42.055Z,80.86
2018-06-02T09:10:52.243Z,81.44
2018-06-02T09:12:02.395Z,81.44
2018-06-02T09:13:12.564Z,81.92
2018-06-02T09:14:22.863Z,81.98
2018-06-02T09:15:33.319Z,82.07
2018-06-02T09:16:43.758Z,82.84
2018-06-02T09:17:53.982Z,82.75
2018-06-02T09:19:04.173Z,83.04
2018-06-02T09:20:14.405Z,83.39
2018-06-02T09:21:24.632Z,83.96
2018-06-02T09:22:34.816Z,83.77
2018-06-02T09:23:45.170Z,84.06
2018-06-02T09:24:55.383Z,84.16
2018-06-02T09:26:05.261Z,84.44
2018-06-02T09:27:15.503Z,84.54
2018-06-02T09:28:26.659Z,84.83
2018-06-02T09:29:36.822Z,84.93
2018-06-02T09:30:47.012Z,85.5
2018-06-02T09:31:57.238Z,85.31
2018-06-02T09:33:07.425Z,85.08
2018-06-02T09:34:17.639Z,85.46
2018-06-02T09:35:28.110Z,85.94
2018-06-02T09:36:38.282Z,85.85
2018-06-02T09:37:48.473Z,85.75
2018-06-02T09:38:58.672Z,85.85
2018-06-02T09:40:08.849Z,85.17
2018-06-02T09:41:18.992Z,85.27
2018-06-02T09:42:29.265Z,85.31
2018-06-02T09:43:39.286Z,85.5
2018-06-02T09:44:49.514Z,84.98
2018-06-02T09:45:59.710Z,84.83
2018-06-02T09:47:10.114Z,84.89
2018-06-02T09:48:20.057Z,84.98
2018-06-02T09:49:30.256Z,84.69
2018-06-02T09:50:40.424Z,85.08
2018-06-02T09:51:50.572Z,85.08
2018-06-02T09:53:00.734Z,84.89
2018-06-02T09:54:10.916Z,85.08
2018-06-02T09:55:21.091Z,85.27
2018-06-02T09:56:30.635Z,84.89
2018-06-02T09:57:40.873Z,84.21
2018-06-02T09:58:51.391Z,84.41
2018-06-02T10:00:01.667Z,84.5
2018-06-02T10:01:11.858Z,83.96
2018-06-02T10:02:22.053Z,83.96
2018-06-02T10:03:32.248Z,84.16
2018-06-02T10:04:42.526Z,83.96
2018-06-02T10:05:52.487Z,83.77
2018-06-02T10:07:02.781Z,83.39
2018-06-02T10:08:12.997Z,83.87
2018-06-02T10:09:23.260Z,83.39
2018-06-02T10:10:33.616Z,82.81
2018-06-02T10:11:43.971Z,82.71
2018-06-02T10:12:53.620Z,83
2018-06-02T10:14:03.810Z,82.51
2018-06-02T10:15:14.023Z,82.23
2018-06-02T10:16:24.215Z,81.65
2018-06-02T10:17:34.140Z,81.74
2018-06-02T10:18:44.282Z,82.03
2018-06-02T10:19:54.514Z,81.8
2018-06-02T10:21:04.477Z,81.9
2018-06-02T10:22:14.697Z,81.65
2018-06-02T10:23:24.909Z,82.03
2018-06-02T10:24:35.256Z,81.16
2018-06-02T10:25:45.517Z,81.16
2018-06-02T10:26:55.788Z,80.39
2018-06-02T10:28:05.956Z,80.62
2018-06-02T10:29:16.169Z,79.75
2018-06-02T10:30:26.364Z,79.66
2018-06-02T10:31:36.561Z,79.66
2018-06-02T10:32:46.753Z,79.47
2018-06-02T10:33:56.980Z,79.27
2018-06-02T10:35:07.263Z,79.12
2018-06-02T10:36:17.461Z,79.02
2018-06-02T10:37:27.650Z,78.92
2018-06-02T10:38:37.897Z,78.64
2018-06-02T10:39:48.127Z,78.73
2018-06-02T10:40:58.358Z,78.54
2018-06-02T10:42:08.561Z,77.96
2018-06-02T10:43:18.719Z,77.19
2018-06-02T10:44:29.057Z,76.8
2018-06-02T10:45:39.371Z,76.42
2018-06-02T10:46:49.548Z,76.64
2018-06-02T10:48:00.717Z,76.16
2018-06-02T10:49:10.907Z,74.81
2018-06-02T10:50:21.150Z,74.17
2018-06-02T10:51:31.132Z,73.97
2018-06-02T10:52:41.363Z,74.17
2018-06-02T10:53:51.552Z,74.65
2018-06-02T10:55:01.716Z,74.65
2018-06-02T10:56:11.915Z,74.55
2018-06-02T10:57:22.136Z,74.01
2018-06-02T10:58:32.353Z,74.21
2018-06-02T10:59:42.504Z,71.88
2018-06-02T11:00:52.703Z,72.4
2018-06-02T11:02:02.887Z,72.21
2018-06-02T11:03:13.059Z,72.24
2018-06-02T11:04:23.367Z,71.76
2018-06-02T11:05:33.536Z,70.98
2018-06-02T11:06:43.702Z,69.24
2018-06-02T11:07:53.967Z,69.34
2018-06-02T11:09:04.254Z,69.92
2018-06-02T11:10:14.519Z,70.4
2018-06-02T11:11:24.747Z,70.7
2018-06-02T11:12:34.916Z,70.21
2018-06-02T11:13:45.142Z,70.18
2018-06-02T11:14:55.296Z,70.76
2018-06-02T11:16:05.480Z,71.62
2018-06-02T11:17:15.682Z,71.78
2018-06-02T11:18:25.957Z,71.88
2018-06-02T11:19:36.193Z,71.72
2018-06-02T11:20:46.376Z,71.72
2018-06-02T11:21:56.631Z,71.34
2018-06-02T11:23:06.815Z,71.14
2018-06-02T11:24:17.038Z,70.66
2018-06-02T11:25:27.294Z,70.66
2018-06-02T11:26:37.595Z,70.37
2018-06-02T11:27:47.794Z,70.56
2018-06-02T11:28:58.117Z,70.18
2018-06-02T11:30:08.617Z,70.18
2018-06-02T11:31:18.993Z,70.37
2018-06-02T11:32:29.640Z,70.37
2018-06-02T11:33:39.609Z,70.34
2018-06-02T11:34:49.783Z,70.34
2018-06-02T11:35:59.602Z,70.53
2018-06-02T11:37:09.995Z,70.14
2018-06-02T11:38:20.226Z,70.14
2018-06-02T11:39:30.413Z,70.43
2018-06-02T11:40:40.624Z,69.4
2018-06-02T11:41:50.532Z,69.79
2018-06-02T11:43:00.694Z,69.5
2018-06-02T11:44:11.026Z,69.63
2018-06-02T11:45:21.500Z,69.34
2018-06-02T11:46:31.421Z,68.37
2018-06-02T11:47:41.599Z,68.5
2018-06-02T11:48:51.821Z,68.5
2018-06-02T11:50:01.980Z,67.95
2018-06-02T11:51:12.204Z,67.47
2018-06-02T11:52:22.439Z,67.18
2018-06-02T11:53:32.626Z,67.27
2018-06-02T11:54:42.850Z,66.6
2018-06-02T11:55:53.028Z,66.6
2018-06-02T11:57:03.288Z,66.3
2018-06-02T11:58:13.476Z,66.6
2018-06-02T11:59:23.625Z,66.5
2018-06-02T12:00:33.827Z,66.5
2018-06-02T12:01:45.123Z,66.66
2018-06-02T12:02:55.316Z,66.6
2018-06-02T12:04:05.591Z,66.56
2018-06-02T12:05:15.776Z,66.85
2018-06-02T12:06:25.977Z,67.24
2018-06-02T12:07:36.157Z,67.02
2018-06-02T12:08:46.438Z,67.4
2018-06-02T12:09:56.636Z,67.6
2018-06-02T12:11:06.917Z,67.5
2018-06-02T12:12:17.139Z,67.88
2018-06-02T12:13:27.308Z,67.79
2018-06-02T12:14:37.536Z,67.69
2018-06-02T12:15:47.760Z,67.21
2018-06-02T12:16:57.925Z,67.11
2018-06-02T12:18:08.144Z,67.76
2018-06-02T12:19:18.316Z,67.37
2018-06-02T12:20:28.607Z,67.95
2018-06-02T12:21:39.019Z,68.43
2018-06-02T12:22:49.231Z,68.59
2018-06-02T12:23:59.426Z,68.4
2018-06-02T12:25:09.578Z,68.98
2018-06-02T12:26:19.794Z,68.88
2018-06-02T12:27:29.744Z,68.79
2018-06-02T12:28:39.940Z,68.69
2018-06-02T12:29:50.152Z,68.88
2018-06-02T12:31:00.345Z,68.98
2018-06-02T12:32:10.553Z,68.69
2018-06-02T12:33:20.495Z,68.3
2018-06-02T12:34:30.442Z,68.4
2018-06-02T12:35:40.606Z,68.88
2018-06-02T12:36:50.812Z,68.88
2018-06-02T12:38:01.094Z,68.88
2018-06-02T12:39:11.277Z,68.79
2018-06-02T12:40:21.645Z,68.69
2018-06-02T12:41:31.829Z,68.79
2018-06-02T12:42:41.872Z,68.69
2018-06-02T12:43:52.069Z,68.59
2018-06-02T12:45:01.874Z,68.3
2018-06-02T12:46:12.215Z,68.59
2018-06-02T12:47:22.412Z,68.98
2018-06-02T12:48:32.629Z,68.85
2018-06-02T12:49:42.821Z,68.79
2018-06-02T12:50:53.000Z,69.27
2018-06-02T12:52:03.316Z,69.27
2018-06-02T12:53:13.487Z,69.24
2018-06-02T12:54:23.799Z,69.53
2018-06-02T12:55:34.004Z,69.82
2018-06-02T12:56:44.181Z,69.33
2018-06-02T12:57:54.410Z,69.95
2018-06-02T12:59:04.279Z,69.33
2018-06-02T13:00:15.405Z,69.62
2018-06-02T13:01:25.573Z,69.72
2018-06-02T13:02:35.784Z,70.2
2018-06-02T13:03:45.687Z,70.1
2018-06-02T13:04:55.499Z,70.2
2018-06-02T13:06:05.894Z,70.5
2018-06-02T13:07:16.165Z,70.1
2018-06-02T13:08:26.340Z,70.5
2018-06-02T13:09:36.621Z,70.01
2018-06-02T13:10:46.814Z,70.01
2018-06-02T13:11:57.039Z,69.92
2018-06-02T13:13:07.211Z,70.01
2018-06-02T13:14:17.380Z,70.4
2018-06-02T13:15:27.210Z,70.2
2018-06-02T13:16:37.378Z,70.1
2018-06-02T13:17:47.586Z,70.1
2018-06-02T13:18:57.784Z,70.3
2018-06-02T13:20:07.664Z,70.3
2018-06-02T13:21:17.919Z,70.3
2018-06-02T13:22:28.158Z,69.92
2018-06-02T13:23:38.330Z,70.01
2018-06-02T13:24:48.501Z,70.01
2018-06-02T13:25:58.348Z,70.01
2018-06-02T13:27:08.531Z,70.2
2018-06-02T13:28:18.436Z,69.75
2018-06-02T13:29:28.627Z,70.14
2018-06-02T13:30:38.472Z,69.37
2018-06-02T13:31:48.646Z,68.79
2018-06-02T13:32:58.819Z,68.59
2018-06-02T13:34:09.011Z,69.08
2018-06-02T13:35:19.176Z,69.17
2018-06-02T13:36:29.379Z,68.98
2018-06-02T13:37:39.543Z,68.88
2018-06-02T13:38:49.702Z,68.69
2018-06-02T13:39:59.897Z,67.72
2018-06-02T13:41:10.138Z,67.53
2018-06-02T13:42:20.342Z,67.11
2018-06-02T13:43:30.566Z,67.49
2018-06-02T13:44:40.485Z,67.79
2018-06-02T13:45:50.272Z,68.27
2018-06-02T13:47:00.446Z,67.98
2018-06-02T13:48:10.662Z,68.01
2018-06-02T13:49:20.833Z,67.91
2018-06-02T13:50:31.040Z,67.33
2018-06-02T13:51:41.242Z,67.05
2018-06-02T13:52:51.044Z,67.05
2018-06-02T13:54:01.199Z,66.98
2018-06-02T13:55:11.369Z,67.27
2018-06-02T13:56:21.190Z,66.98
2018-06-02T13:57:31.387Z,66.78
2018-06-02T13:58:41.731Z,67.08
2018-06-02T13:59:51.887Z,67.18
2018-06-02T14:01:02.063Z,67.63
2018-06-02T14:02:12.282Z,67.53
2018-06-02T14:03:22.484Z,67.91
2018-06-02T14:04:32.679Z,67.91
2018-06-02T14:05:42.855Z,67.82
2018-06-02T14:06:53.150Z,68.01
2018-06-02T14:08:03.348Z,68.4
2018-06-02T14:09:13.563Z,68.49
2018-06-02T14:10:23.812Z,68.79
2018-06-02T14:11:34.012Z,68.88
2018-06-02T14:12:44.243Z,68.3
2018-06-02T14:13:54.440Z,69.08
2018-06-02T14:15:04.616Z,69.17
2018-06-02T14:16:14.818Z,69.33
2018-06-02T14:17:24.787Z,69.43
2018-06-02T14:18:35.160Z,69.92
2018-06-02T14:19:45.639Z,69.53
2018-06-02T14:20:55.812Z,69.33
2018-06-02T14:22:06.019Z,69.14
2018-06-02T14:23:16.190Z,69.33
2018-06-02T14:24:26.378Z,69.33
2018-06-02T14:25:36.623Z,69.33
2018-06-02T14:26:46.901Z,69.53
2018-06-02T14:27:57.129Z,69.33
2018-06-02T14:29:07.272Z,69.62
2018-06-02T14:30:17.494Z,69.92
2018-06-02T14:31:27.651Z,70.1
2018-06-02T14:32:37.887Z,70.5
2018-06-02T14:33:48.183Z,70.01
2018-06-02T14:34:58.333Z,70.1
2018-06-02T14:36:08.499Z,70.36
2018-06-02T14:37:18.697Z,70.36
2018-06-02T14:38:28.283Z,70.46
2018-06-02T14:39:38.433Z,70.84
2018-06-02T14:40:48.591Z,70.65
2018-06-02T14:41:58.770Z,70.65
2018-06-02T14:43:08.957Z,70.84
2018-06-02T14:44:19.114Z,70.46
2018-06-02T14:45:29.310Z,71.33
2018-06-02T14:46:39.650Z,71.14
2018-06-02T14:47:49.835Z,71.48
2018-06-02T14:49:00.021Z,71.68
2018-06-02T14:50:10.295Z,71.68
2018-06-02T14:51:20.499Z,71.68
2018-06-02T14:52:30.372Z,71.58
2018-06-02T14:53:40.282Z,71.2
2018-06-02T14:54:50.449Z,71.72
2018-06-02T14:56:00.661Z,71.14
2018-06-02T14:57:11.808Z,71.23
2018-06-02T14:58:21.983Z,71.14
2018-06-02T14:59:32.268Z,71.14
2018-06-02T15:00:42.434Z,70.26
2018-06-02T15:01:52.639Z,70.46
2018-06-02T15:03:02.788Z,70.36
2018-06-02T15:04:12.936Z,69.98
2018-06-02T15:05:22.791Z,70.36
2018-06-02T15:06:32.978Z,70.42
2018-06-02T15:07:43.180Z,70.52
2018-06-02T15:08:53.540Z,71.2